createdAt,value
2018-05-09T00:00:42.959Z,1002.24
2018-05-09T00:01:42.938Z,1002.24
2018-05-09T00:02:42.930Z,1002.22
2018-05-09T00:03:42.920Z,1002.21
2018-05-09T00:04:42.903Z,1002.22
2018-05-09T00:05:42.902Z,1002.21
2018-05-09T00:06:42.881Z,1002.20
2018-05-09T00:07:42.888Z,1002.19
2018-05-09T00:08:42.861Z,1002.21
2018-05-09T00:09:42.851Z,1002.17
2018-05-09T00:10:42.838Z,1002.22
2018-05-09T00:11:42.828Z,1002.24
2018-05-09T00:12:42.813Z,1002.20
2018-05-09T00:13:42.807Z,1002.21
2018-05-09T00:14:42.802Z,1002.22
2018-05-09T00:15:42.782Z,1002.23
2018-05-09T00:16:42.768Z,1002.22
2018-05-09T00:17:42.759Z,1002.23
2018-05-09T00:18:42.752Z,1002.24
2018-05-09T00:19:42.733Z,1002.27
2018-05-09T00:20:42.729Z,1002.23
2018-05-09T00:21:42.712Z,1002.26
2018-05-09T00:22:42.707Z,1002.23
2018-05-09T00:23:42.687Z,1002.23
2018-05-09T00:24:42.677Z,1002.23
2018-05-09T00:25:42.667Z,1002.22
2018-05-09T00:26:42.695Z,1002.20
2018-05-09T00:27:42.648Z,1002.21
2018-05-09T00:28:42.632Z,1002.21
2018-05-09T00:29:42.618Z,1002.19
2018-05-09T00:30:42.613Z,1002.18
2018-05-09T00:31:42.596Z,1002.16
2018-05-09T00:32:42.584Z,1002.11
2018-05-09T00:33:42.578Z,1002.13
2018-05-09T00:34:42.562Z,1002.16
2018-05-09T00:35:42.553Z,1002.13
2018-05-09T00:36:42.539Z,1002.11
2018-05-09T00:37:42.529Z,1002.15
2018-05-09T00:38:42.513Z,1002.12
2018-05-09T00:39:42.505Z,1002.12
2018-05-09T00:40:42.498Z,1002.13
2018-05-09T00:41:42.505Z,1002.13
2018-05-09T00:42:42.468Z,1002.09
2018-05-09T00:43:42.460Z,1002.07
2018-05-09T00:44:42.448Z,1002.10
2018-05-09T00:45:42.438Z,1002.07
2018-05-09T00:46:42.423Z,1002.08
2018-05-09T00:47:42.408Z,1002.07
2018-05-09T00:48:42.401Z,1002.10
2018-05-09T00:49:42.387Z,1002.04
2018-05-09T00:50:42.375Z,1002.02
2018-05-09T00:51:42.365Z,1002.01
2018-05-09T00:52:42.355Z,1002.02
2018-05-09T00:53:42.342Z,1002.02
2018-05-09T00:54:42.328Z,1002.00
2018-05-09T00:55:42.315Z,1001.99
2018-05-09T00:56:42.305Z,1002.00
2018-05-09T00:57:42.297Z,1001.99
2018-05-09T00:58:42.280Z,1001.99
2018-05-09T00:59:42.268Z,1001.99
2018-05-09T01:00:42.264Z,1001.99
2018-05-09T01:01:42.245Z,1001.96
2018-05-09T01:02:42.235Z,1001.94
2018-05-09T01:03:42.218Z,1001.95
2018-05-09T01:04:42.208Z,1001.93
2018-05-09T01:05:42.201Z,1001.92
2018-05-09T01:06:42.188Z,1001.90
2018-05-09T01:07:42.179Z,1001.90
2018-05-09T01:08:42.159Z,1001.90
2018-05-09T01:09:42.147Z,1001.88
2018-05-09T01:10:42.138Z,1001.93
2018-05-09T01:11:42.124Z,1001.88
2018-05-09T01:12:42.125Z,1001.91
2018-05-09T01:13:42.097Z,1001.87
2018-05-09T01:14:42.093Z,1001.91
2018-05-09T01:15:42.079Z,1001.90
2018-05-09T01:16:42.063Z,1001.95
2018-05-09T01:17:42.051Z,1001.90
2018-05-09T01:18:42.049Z,1001.92
2018-05-09T01:19:42.031Z,1001.92
2018-05-09T01:20:42.019Z,1001.94
2018-05-09T01:21:42.002Z,1001.91
2018-05-09T01:22:41.998Z,1001.90
2018-05-09T01:23:41.976Z,1001.88
2018-05-09T01:24:41.967Z,1001.90
2018-05-09T01:25:41.958Z,1001.84
2018-05-09T01:26:41.948Z,1001.90
2018-05-09T01:27:41.932Z,1001.86
2018-05-09T01:28:42.080Z,1001.86
2018-05-09T01:29:41.907Z,1001.89
2018-05-09T01:30:41.992Z,1001.85
2018-05-09T01:31:41.883Z,1001.83
2018-05-09T01:32:41.970Z,1001.86
2018-05-09T01:33:41.856Z,1001.85
2018-05-09T01:34:41.998Z,1001.85
2018-05-09T01:35:41.838Z,1001.83
2018-05-09T01:36:41.828Z,1001.83
2018-05-09T01:37:41.812Z,1001.84
2018-05-09T01:38:41.795Z,1001.84
2018-05-09T01:39:41.782Z,1001.86
2018-05-09T01:40:41.775Z,1001.81
2018-05-09T01:41:41.758Z,1001.81
2018-05-09T01:42:41.755Z,1001.79
2018-05-09T01:43:41.740Z,1001.77
2018-05-09T01:44:41.727Z,1001.77
2018-05-09T01:45:41.714Z,1001.76
2018-05-09T01:46:41.699Z,1001.76
2018-05-09T01:47:41.687Z,1001.77
2018-05-09T01:48:41.674Z,1001.75
2018-05-09T01:49:41.672Z,1001.77
2018-05-09T01:50:41.658Z,1001.73
2018-05-09T01:51:41.638Z,1001.71
2018-05-09T01:52:41.624Z,1001.71
2018-05-09T01:53:41.608Z,1001.71
2018-05-09T01:54:41.599Z,1001.71
2018-05-09T01:55:41.589Z,1001.69
2018-05-09T01:56:41.581Z,1001.71
2018-05-09T01:57:41.567Z,1001.69
2018-05-09T01:58:41.548Z,1001.70
2018-05-09T01:59:41.539Z,1001.72
2018-05-09T02:00:41.526Z,1001.70
2018-05-09T02:01:41.522Z,1001.71
2018-05-09T02:02:41.504Z,1001.73
2018-05-09T02:03:41.487Z,1001.70
2018-05-09T02:04:41.472Z,1001.71
2018-05-09T02:05:41.466Z,1001.72
2018-05-09T02:06:41.448Z,1001.73
2018-05-09T02:07:41.437Z,1001.76
2018-05-09T02:08:41.428Z,1001.76
2018-05-09T02:09:41.416Z,1001.79
2018-05-09T02:10:41.402Z,1001.77
2018-05-09T02:11:41.390Z,1001.80
2018-05-09T02:12:41.378Z,1001.80
2018-05-09T02:13:41.365Z,1001.81
2018-05-09T02:14:41.351Z,1001.82
2018-05-09T02:15:41.339Z,1001.82
2018-05-09T02:16:41.328Z,1001.81
2018-05-09T02:17:41.325Z,1001.84
2018-05-09T02:18:41.299Z,1001.78
2018-05-09T02:19:41.289Z,1001.76
2018-05-09T02:20:41.278Z,1001.80
2018-05-09T02:21:41.266Z,1001.79
2018-05-09T02:22:41.254Z,1001.78
2018-05-09T02:23:41.239Z,1001.76
2018-05-09T02:24:41.239Z,1001.75
2018-05-09T02:25:41.216Z,1001.73
2018-05-09T02:26:41.208Z,1001.72
2018-05-09T02:27:41.188Z,1001.74
2018-05-09T02:28:41.179Z,1001.71
2018-05-09T02:29:41.164Z,1001.73
2018-05-09T02:30:41.151Z,1001.68
2018-05-09T02:31:41.139Z,1001.72
2018-05-09T02:32:41.144Z,1001.70
2018-05-09T02:33:41.118Z,1001.71
2018-05-09T02:34:41.104Z,1001.67
2018-05-09T02:35:41.092Z,1001.66
2018-05-09T02:36:41.076Z,1001.70
2018-05-09T02:37:41.068Z,1001.64
2018-05-09T02:38:41.049Z,1001.65
2018-05-09T02:39:41.040Z,1001.61
2018-05-09T02:40:41.030Z,1001.64
2018-05-09T02:41:41.023Z,1001.64
2018-05-09T02:42:41.000Z,1001.63
2018-05-09T02:43:41.042Z,1001.63
2018-05-09T02:44:40.972Z,1001.62
2018-05-09T02:45:40.966Z,1001.62
2018-05-09T02:46:40.951Z,1001.62
2018-05-09T02:47:40.942Z,1001.64
2018-05-09T02:48:40.922Z,1001.62
2018-05-09T02:49:40.908Z,1001.59
2018-05-09T02:50:40.901Z,1001.65
2018-05-09T02:51:40.887Z,1001.63
2018-05-09T02:52:40.870Z,1001.61
2018-05-09T02:53:40.860Z,1001.63
2018-05-09T02:54:40.849Z,1001.66
2018-05-09T02:55:40.834Z,1001.67
2018-05-09T02:56:40.819Z,1001.70
2018-05-09T02:57:40.813Z,1001.71
2018-05-09T02:58:40.799Z,1001.73
2018-05-09T02:59:40.787Z,1001.70
2018-05-09T03:00:40.771Z,1001.73
2018-05-09T03:01:40.762Z,1001.71
2018-05-09T03:02:40.749Z,1001.73
2018-05-09T03:03:40.731Z,1001.70
2018-05-09T03:04:40.720Z,1001.69
2018-05-09T03:05:40.710Z,1001.70
2018-05-09T03:06:40.702Z,1001.69
2018-05-09T03:07:40.681Z,1001.69
2018-05-09T03:08:40.668Z,1001.70
2018-05-09T03:09:40.653Z,1001.72
2018-05-09T03:10:40.641Z,1001.73
2018-05-09T03:11:40.629Z,1001.71
2018-05-09T03:12:40.614Z,1001.74
2018-05-09T03:13:40.607Z,1001.73
2018-05-09T03:14:40.596Z,1001.71
2018-05-09T03:15:40.579Z,1001.74
2018-05-09T03:16:40.569Z,1001.71
2018-05-09T03:17:40.549Z,1001.70
2018-05-09T03:18:40.540Z,1001.72
2018-05-09T03:19:40.536Z,1001.67
2018-05-09T03:20:40.508Z,1001.66
2018-05-09T03:21:40.498Z,1001.65
2018-05-09T03:22:40.493Z,1001.64
2018-05-09T03:23:40.484Z,1001.67
2018-05-09T03:24:40.458Z,1001.64
2018-05-09T03:25:40.444Z,1001.66
2018-05-09T03:26:40.432Z,1001.65
2018-05-09T03:27:40.422Z,1001.66
2018-05-09T03:28:40.406Z,1001.70
2018-05-09T03:29:40.401Z,1001.65
2018-05-09T03:30:40.380Z,1001.68
2018-05-09T03:31:40.380Z,1001.68
2018-05-09T03:32:40.362Z,1001.69
2018-05-09T03:33:40.340Z,1001.68
2018-05-09T03:34:40.328Z,1001.68
2018-05-09T03:35:40.325Z,1001.69
2018-05-09T03:36:40.304Z,1001.70
2018-05-09T03:37:40.289Z,1001.69
2018-05-09T03:38:40.276Z,1001.70
2018-05-09T03:39:40.266Z,1001.69
2018-05-09T03:40:40.250Z,1001.68
2018-05-09T03:41:40.240Z,1001.72
2018-05-09T03:42:40.229Z,1001.72
2018-05-09T03:43:40.218Z,1001.73
2018-05-09T03:44:40.209Z,1001.72
2018-05-09T03:45:40.190Z,1001.74
2018-05-09T03:46:40.180Z,1001.76
2018-05-09T03:47:40.159Z,1001.79
2018-05-09T03:48:40.151Z,1001.79
2018-05-09T03:49:40.144Z,1001.76
2018-05-09T03:50:40.123Z,1001.82
2018-05-09T03:51:40.109Z,1001.84
2018-05-09T03:52:40.100Z,1001.85
2018-05-09T03:53:40.082Z,1001.84
2018-05-09T03:54:40.070Z,1001.87
2018-05-09T03:55:40.052Z,1001.84
2018-05-09T03:56:40.047Z,1001.85
2018-05-09T03:57:40.027Z,1001.88
2018-05-09T03:58:40.021Z,1001.87
2018-05-09T03:59:40.000Z,1001.87
2018-05-09T04:00:40.140Z,1001.86
2018-05-09T04:01:39.980Z,1001.90
2018-05-09T04:02:40.020Z,1001.87
2018-05-09T04:03:39.950Z,1001.91
2018-05-09T04:04:39.940Z,1001.91
2018-05-09T04:05:39.919Z,1001.90
2018-05-09T04:06:39.911Z,1001.89
2018-05-09T04:07:39.903Z,1001.89
2018-05-09T04:08:39.883Z,1001.92
2018-05-09T04:09:39.870Z,1001.93
2018-05-09T04:10:39.862Z,1001.91
2018-05-09T04:11:39.902Z,1001.90
2018-05-09T04:12:39.838Z,1001.90
2018-05-09T04:13:39.820Z,1001.90
2018-05-09T04:14:39.805Z,1001.89
2018-05-09T04:15:39.788Z,1001.88
2018-05-09T04:16:39.774Z,1001.85
2018-05-09T04:17:39.763Z,1001.92
2018-05-09T04:18:39.749Z,1001.85
2018-05-09T04:19:39.739Z,1001.89
2018-05-09T04:20:39.733Z,1001.92
2018-05-09T04:21:39.715Z,1001.92
2018-05-09T04:22:39.702Z,1001.92
2018-05-09T04:23:39.687Z,1001.92
2018-05-09T04:24:39.669Z,1001.95
2018-05-09T04:25:39.659Z,1001.93
2018-05-09T04:26:39.647Z,1001.93
2018-05-09T04:27:39.639Z,1001.97
2018-05-09T04:28:39.617Z,1001.97
2018-05-09T04:29:39.607Z,1001.96
2018-05-09T04:30:39.602Z,1001.94
2018-05-09T04:31:39.579Z,1001.96
2018-05-09T04:32:39.569Z,1001.98
2018-05-09T04:33:39.553Z,1002.02
2018-05-09T04:34:39.539Z,1002.03
2018-05-09T04:35:39.528Z,1002.05
2018-05-09T04:36:39.513Z,1002.10
2018-05-09T04:37:39.499Z,1002.11
2018-05-09T04:38:39.489Z,1002.13
2018-05-09T04:39:39.473Z,1002.15
2018-05-09T04:40:39.460Z,1002.13
2018-05-09T04:41:39.450Z,1002.17
2018-05-09T04:42:39.450Z,1002.18
2018-05-09T04:43:39.433Z,1002.12
2018-05-09T04:44:39.412Z,1002.13
2018-05-09T04:45:39.399Z,1002.05
2018-05-09T04:46:39.389Z,1002.08
2018-05-09T04:47:39.369Z,1002.08
2018-05-09T04:48:39.361Z,1002.10
2018-05-09T04:49:39.345Z,1002.11
2018-05-09T04:50:39.329Z,1002.15
2018-05-09T04:51:39.318Z,1002.13
2018-05-09T04:52:39.304Z,1002.13
2018-05-09T04:53:39.296Z,1002.11
2018-05-09T04:54:39.276Z,1002.18
2018-05-09T04:55:39.450Z,1002.15
2018-05-09T04:56:39.259Z,1002.14
2018-05-09T04:57:39.241Z,1002.09
2018-05-09T04:58:39.231Z,1002.08
2018-05-09T04:59:39.213Z,1002.08
2018-05-09T05:00:39.210Z,1002.05
2018-05-09T05:01:39.185Z,1002.06
2018-05-09T05:02:39.173Z,1002.07
2018-05-09T05:03:39.164Z,1002.03
2018-05-09T05:04:39.148Z,1002.03
2018-05-09T05:05:39.138Z,1002.06
2018-05-09T05:06:39.128Z,1002.02
2018-05-09T05:07:39.138Z,1002.03
2018-05-09T05:08:39.097Z,1002.05
2018-05-09T05:09:39.184Z,1002.03
2018-05-09T05:10:39.078Z,1002.06
2018-05-09T05:11:39.112Z,1002.04
2018-05-09T05:12:39.051Z,1002.04
2018-05-09T05:13:39.038Z,1002.06
2018-05-09T05:14:39.025Z,1002.07
2018-05-09T05:15:39.043Z,1002.09
2018-05-09T05:16:38.995Z,1002.12
2018-05-09T05:17:38.985Z,1002.11
2018-05-09T05:18:38.979Z,1002.12
2018-05-09T05:19:39.066Z,1002.11
2018-05-09T05:20:38.949Z,1002.13
2018-05-09T05:21:38.948Z,1002.15
2018-05-09T05:22:38.930Z,1002.16
2018-05-09T05:23:38.960Z,1002.15
2018-05-09T05:24:38.897Z,1002.14
2018-05-09T05:25:38.889Z,1002.13
2018-05-09T05:26:38.869Z,1002.12
2018-05-09T05:27:38.961Z,1002.05
2018-05-09T05:28:38.851Z,1002.06
2018-05-09T05:29:38.880Z,1002.09
2018-05-09T05:30:38.820Z,1002.11
2018-05-09T05:31:38.816Z,1002.08
2018-05-09T05:32:38.839Z,1002.12
2018-05-09T05:33:38.784Z,1002.14
2018-05-09T05:34:38.773Z,1002.17
2018-05-09T05:35:38.754Z,1002.15
2018-05-09T05:36:38.742Z,1002.16
2018-05-09T05:37:38.740Z,1002.18
2018-05-09T05:38:38.725Z,1002.20
2018-05-09T05:39:38.712Z,1002.16
2018-05-09T05:40:38.701Z,1002.23
2018-05-09T05:41:38.681Z,1002.25
2018-05-09T05:42:38.671Z,1002.24
2018-05-09T05:43:38.669Z,1002.18
2018-05-09T05:44:38.644Z,1002.16
2018-05-09T05:45:38.638Z,1002.17
2018-05-09T05:46:38.620Z,1002.18
2018-05-09T05:47:38.610Z,1002.19
2018-05-09T05:48:38.590Z,1002.20
2018-05-09T05:49:38.580Z,1002.16
2018-05-09T05:50:38.571Z,1002.15
2018-05-09T05:51:38.555Z,1002.19
2018-05-09T05:52:38.547Z,1002.19
2018-05-09T05:53:38.526Z,1002.20
2018-05-09T05:54:38.540Z,1002.21
2018-05-09T05:55:38.503Z,1002.20
2018-05-09T05:56:38.490Z,1002.23
2018-05-09T05:57:38.490Z,1002.20
2018-05-09T05:58:38.489Z,1002.21
2018-05-09T05:59:38.459Z,1002.22
2018-05-09T06:00:38.441Z,1002.16
2018-05-09T06:01:38.434Z,1002.20
2018-05-09T06:02:38.419Z,1002.15
2018-05-09T06:03:38.409Z,1002.18
2018-05-09T06:04:38.402Z,1002.14
2018-05-09T06:05:38.392Z,1002.15
2018-05-09T06:06:38.371Z,1002.14
2018-05-09T06:07:38.364Z,1002.17
2018-05-09T06:08:38.351Z,1002.14
2018-05-09T06:09:38.339Z,1002.16
2018-05-09T06:10:38.330Z,1002.11
2018-05-09T06:11:38.318Z,1002.10
2018-05-09T06:12:38.300Z,1002.09
2018-05-09T06:13:38.299Z,1002.12
2018-05-09T06:14:38.284Z,1002.14
2018-05-09T06:15:38.271Z,1002.14
2018-05-09T06:16:38.252Z,1002.16
2018-05-09T06:17:38.246Z,1002.20
2018-05-09T06:18:38.232Z,1002.17
2018-05-09T06:19:38.219Z,1002.18
2018-05-09T06:20:38.204Z,1002.19
2018-05-09T06:21:38.204Z,1002.19
2018-05-09T06:22:38.180Z,1002.20
2018-05-09T06:23:38.187Z,1002.24
2018-05-09T06:24:38.171Z,1002.26
2018-05-09T06:25:38.151Z,1002.27
2018-05-09T06:26:38.142Z,1002.27
2018-05-09T06:27:38.134Z,1002.29
2018-05-09T06:28:38.110Z,1002.31
2018-05-09T06:29:38.100Z,1002.32
2018-05-09T06:30:38.090Z,1002.36
2018-05-09T06:31:38.080Z,1002.31
2018-05-09T06:32:38.069Z,1002.37
2018-05-09T06:33:38.063Z,1002.36
2018-05-09T06:34:38.051Z,1002.40
2018-05-09T06:35:38.041Z,1002.41
2018-05-09T06:36:38.019Z,1002.41
2018-05-09T06:37:38.037Z,1002.42
2018-05-09T06:38:38.003Z,1002.43
2018-05-09T06:39:37.985Z,1002.38
2018-05-09T06:40:37.979Z,1002.40
2018-05-09T06:41:38.033Z,1002.43
2018-05-09T06:42:37.954Z,1002.43
2018-05-09T06:43:38.039Z,1002.46
2018-05-09T06:44:37.936Z,1002.43
2018-05-09T06:45:37.929Z,1002.50
2018-05-09T06:46:37.914Z,1002.50
2018-05-09T06:47:37.899Z,1002.49
2018-05-09T06:48:37.889Z,1002.50
2018-05-09T06:49:37.880Z,1002.54
2018-05-09T06:50:37.869Z,1002.54
2018-05-09T06:51:37.860Z,1002.51
2018-05-09T06:52:37.846Z,1002.55
2018-05-09T06:53:37.838Z,1002.54
2018-05-09T06:54:37.830Z,1002.55
2018-05-09T06:55:37.818Z,1002.56
2018-05-09T06:56:37.805Z,1002.57
2018-05-09T06:57:37.794Z,1002.59
2018-05-09T06:58:37.781Z,1002.54
2018-05-09T06:59:37.770Z,1002.55
2018-05-09T07:00:37.760Z,1002.54
2018-05-09T07:01:37.754Z,1002.57
2018-05-09T07:02:37.746Z,1002.57
2018-05-09T07:03:37.730Z,1002.61
2018-05-09T07:04:37.719Z,1002.60
2018-05-09T07:05:37.721Z,1002.59
2018-05-09T07:06:37.854Z,1002.60
2018-05-09T07:07:37.687Z,1002.59
2018-05-09T07:08:37.683Z,1002.59
2018-05-09T07:09:37.667Z,1002.62
2018-05-09T07:10:37.659Z,1002.62
2018-05-09T07:11:37.650Z,1002.63
2018-05-09T07:12:37.733Z,1002.58
2018-05-09T07:13:37.626Z,1002.59
2018-05-09T07:14:37.620Z,1002.58
2018-05-09T07:15:37.607Z,1002.59
2018-05-09T07:16:37.597Z,1002.59
2018-05-09T07:17:37.590Z,1002.59
2018-05-09T07:18:37.578Z,1002.54
2018-05-09T07:19:37.572Z,1002.51
2018-05-09T07:20:37.559Z,1002.52
2018-05-09T07:21:37.556Z,1002.53
2018-05-09T07:22:37.541Z,1002.54
2018-05-09T07:23:37.530Z,1002.50
2018-05-09T07:24:37.518Z,1002.54
2018-05-09T07:25:37.614Z,1002.55
2018-05-09T07:26:37.500Z,1002.52
2018-05-09T07:27:37.541Z,1002.56
2018-05-09T07:28:37.480Z,1002.56
2018-05-09T07:29:37.521Z,1002.58
2018-05-09T07:30:37.468Z,1002.59
2018-05-09T07:31:37.552Z,1002.58
2018-05-09T07:32:37.442Z,1002.60
2018-05-09T07:33:37.441Z,1002.60
2018-05-09T07:34:37.430Z,1002.61
2018-05-09T07:35:37.420Z,1002.60
2018-05-09T07:36:37.402Z,1002.62
2018-05-09T07:37:37.399Z,1002.59
2018-05-09T07:38:37.384Z,1002.64
2018-05-09T07:39:37.379Z,1002.61
2018-05-09T07:40:37.369Z,1002.63
2018-05-09T07:41:37.359Z,1002.63
2018-05-09T07:42:37.352Z,1002.58
2018-05-09T07:43:37.347Z,1002.63
2018-05-09T07:44:37.339Z,1002.71
2018-05-09T07:45:37.334Z,1002.65
2018-05-09T07:46:37.314Z,1002.64
2018-05-09T07:47:37.410Z,1002.63
2018-05-09T07:48:37.299Z,1002.70
2018-05-09T07:49:37.298Z,1002.74
2018-05-09T07:50:37.288Z,1002.95
2018-05-09T07:51:37.279Z,1003.14
2018-05-09T07:52:37.279Z,1003.11
2018-05-09T07:53:37.269Z,1003.27
2018-05-09T07:54:37.260Z,1003.18
2018-05-09T07:55:37.336Z,1003.06
2018-05-09T07:56:37.248Z,1002.95
2018-05-09T07:57:37.249Z,1003.13
2018-05-09T07:58:37.242Z,1003.18
2018-05-09T07:59:37.237Z,1003.43
2018-05-09T08:00:37.229Z,1003.46
2018-05-09T08:01:37.227Z,1003.41
2018-05-09T08:02:37.319Z,1003.42
2018-05-09T08:03:37.224Z,1003.47
2018-05-09T08:04:37.223Z,1003.46
2018-05-09T08:05:37.228Z,1003.47
2018-05-09T08:06:37.271Z,1003.42
2018-05-09T08:07:37.214Z,1003.45
2018-05-09T08:08:37.214Z,1003.43
2018-05-09T08:09:37.219Z,1003.44
2018-05-09T08:10:37.217Z,1003.41
2018-05-09T08:11:37.218Z,1003.41
2018-05-09T08:12:37.212Z,1003.44
2018-05-09T08:13:37.220Z,1003.40
2018-05-09T08:14:37.221Z,1003.40
2018-05-09T08:15:37.220Z,1003.43
2018-05-09T08:16:37.220Z,1003.42
2018-05-09T08:17:37.218Z,1003.42
2018-05-09T08:18:37.225Z,1003.42
2018-05-09T08:19:37.228Z,1003.44
2018-05-09T08:20:37.230Z,1003.49
2018-05-09T08:21:37.230Z,1003.48
2018-05-09T08:22:37.230Z,1003.48
2018-05-09T08:23:37.240Z,1003.49
2018-05-09T08:24:37.251Z,1003.55
2018-05-09T08:25:37.241Z,1003.53
2018-05-09T08:26:37.254Z,1003.54
2018-05-09T08:27:37.249Z,1003.55
2018-05-09T08:28:37.251Z,1003.52
2018-05-09T08:29:37.261Z,1003.49
2018-05-09T08:30:37.260Z,1003.56
2018-05-09T08:31:37.268Z,1003.58
2018-05-09T08:32:37.274Z,1003.60
2018-05-09T08:33:37.270Z,1003.60
2018-05-09T08:34:37.274Z,1003.60
2018-05-09T08:35:37.283Z,1003.61
2018-05-09T08:36:37.295Z,1003.61
2018-05-09T08:37:37.296Z,1003.58
2018-05-09T08:38:37.305Z,1003.63
2018-05-09T08:39:37.303Z,1003.65
2018-05-09T08:40:37.303Z,1003.60
2018-05-09T08:41:37.308Z,1003.47
2018-05-09T08:42:37.315Z,1003.46
2018-05-09T08:43:37.468Z,1003.59
2018-05-09T08:44:37.335Z,1003.63
2018-05-09T08:45:37.330Z,1003.59
2018-05-09T08:46:37.349Z,1003.57
2018-05-09T08:47:37.342Z,1003.49
2018-05-09T08:48:37.348Z,1003.47
2018-05-09T08:49:37.350Z,1003.43
2018-05-09T08:50:37.361Z,1003.40
2018-05-09T08:51:37.370Z,1003.43
2018-05-09T08:52:37.371Z,1003.47
2018-05-09T08:53:37.369Z,1003.52
2018-05-09T08:54:37.381Z,1003.59
2018-05-09T08:55:37.396Z,1003.56
2018-05-09T08:56:37.392Z,1003.53
2018-05-09T08:57:37.405Z,1003.54
2018-05-09T08:58:37.401Z,1003.50
2018-05-09T08:59:37.416Z,1003.48
2018-05-09T09:00:37.409Z,1003.40
2018-05-09T09:01:37.418Z,1003.46
2018-05-09T09:02:37.423Z,1003.41
2018-05-09T09:03:37.431Z,1003.42
2018-05-09T09:04:37.439Z,1003.41
2018-05-09T09:05:37.439Z,1003.32
2018-05-09T09:06:37.450Z,1003.28
2018-05-09T09:07:37.453Z,1003.22
2018-05-09T09:08:37.455Z,1003.22
2018-05-09T09:09:37.467Z,1003.22
2018-05-09T09:10:37.461Z,1003.14
2018-05-09T09:11:37.465Z,1003.11
2018-05-09T09:12:37.471Z,1003.21
2018-05-09T09:13:37.475Z,1003.20
2018-05-09T09:14:37.490Z,1003.16
2018-05-09T09:15:37.524Z,1003.12
2018-05-09T09:16:37.490Z,1003.12
2018-05-09T09:17:37.499Z,1003.16
2018-05-09T09:18:37.536Z,1003.07
2018-05-09T09:19:37.504Z,1003.04
2018-05-09T09:20:37.512Z,1003.07
2018-05-09T09:21:37.523Z,1003.06
2018-05-09T09:22:37.509Z,1003.04
2018-05-09T09:23:37.513Z,1003.04
2018-05-09T09:24:37.522Z,1003.09
2018-05-09T09:25:37.522Z,1003.02
2018-05-09T09:26:37.530Z,1003.02
2018-05-09T09:27:37.529Z,1002.96
2018-05-09T09:28:37.544Z,1002.97
2018-05-09T09:29:37.539Z,1002.93
2018-05-09T09:30:37.543Z,1002.88
2018-05-09T09:31:37.539Z,1002.88
2018-05-09T09:32:37.548Z,1002.88
2018-05-09T09:33:37.552Z,1002.81
2018-05-09T09:34:37.551Z,1002.71
2018-05-09T09:35:37.550Z,1002.68
2018-05-09T09:36:37.552Z,1002.67
2018-05-09T09:37:37.560Z,1002.66
2018-05-09T09:38:37.562Z,1002.65
2018-05-09T09:39:37.561Z,1002.69
2018-05-09T09:40:37.560Z,1002.60
2018-05-09T09:41:37.561Z,1002.62
2018-05-09T09:42:37.568Z,1002.68
2018-05-09T09:43:37.579Z,1002.69
2018-05-09T09:44:37.574Z,1002.69
2018-05-09T09:45:37.568Z,1002.66
2018-05-09T09:46:37.571Z,1002.72
2018-05-09T09:47:37.568Z,1002.66
2018-05-09T09:48:37.575Z,1002.64
2018-05-09T09:49:37.570Z,1002.62
2018-05-09T09:50:37.574Z,1002.60
2018-05-09T09:51:37.587Z,1002.58
2018-05-09T09:52:37.576Z,1002.60
2018-05-09T09:53:37.582Z,1002.58
2018-05-09T09:54:37.581Z,1002.53
2018-05-09T09:55:37.578Z,1002.51
2018-05-09T09:56:37.581Z,1002.54
2018-05-09T09:57:37.583Z,1002.46
2018-05-09T09:58:37.580Z,1002.54
2018-05-09T09:59:37.576Z,1002.46
2018-05-09T10:00:37.584Z,1002.46
2018-05-09T10:01:37.664Z,1002.43
2018-05-09T10:02:37.575Z,1002.47
2018-05-09T10:03:37.584Z,1002.44
2018-05-09T10:04:37.589Z,1002.44
2018-05-09T10:05:37.581Z,1002.43
2018-05-09T10:06:37.585Z,1002.41
2018-05-09T10:07:37.573Z,1002.44
2018-05-09T10:08:37.575Z,1002.42
2018-05-09T10:09:37.573Z,1002.40
2018-05-09T10:10:37.574Z,1002.43
2018-05-09T10:11:37.580Z,1002.38
2018-05-09T10:12:37.571Z,1002.36
2018-05-09T10:13:37.571Z,1002.33
2018-05-09T10:14:37.574Z,1002.32
2018-05-09T10:15:37.574Z,1002.25
2018-05-09T10:16:37.571Z,1002.22
2018-05-09T10:17:37.564Z,1002.26
2018-05-09T10:18:37.568Z,1002.24
2018-05-09T10:19:37.571Z,1002.20
2018-05-09T10:20:37.562Z,1002.25
2018-05-09T10:21:37.561Z,1002.22
2018-05-09T10:22:37.571Z,1002.22
2018-05-09T10:23:37.566Z,1002.17
2018-05-09T10:24:37.566Z,1002.19
2018-05-09T10:25:37.564Z,1002.15
2018-05-09T10:26:37.560Z,1002.19
2018-05-09T10:27:37.554Z,1002.19
2018-05-09T10:28:37.552Z,1002.13
2018-05-09T10:29:37.552Z,1002.13
2018-05-09T10:30:37.544Z,1002.11
2018-05-09T10:31:37.615Z,1002.12
2018-05-09T10:32:37.552Z,1002.10
2018-05-09T10:33:37.543Z,1002.03
2018-05-09T10:34:37.542Z,1002.08
2018-05-09T10:35:37.535Z,1002.04
2018-05-09T10:36:37.541Z,1002.05
2018-05-09T10:37:37.533Z,1002.02
2018-05-09T10:38:37.533Z,1002.01
2018-05-09T10:39:37.534Z,1002.05
2018-05-09T10:40:37.524Z,1002.04
2018-05-09T10:41:37.533Z,1002.05
2018-05-09T10:42:37.521Z,1002.04
2018-05-09T10:43:37.523Z,1002.03
2018-05-09T10:44:37.520Z,1002.01
2018-05-09T10:45:37.520Z,1002.01
2018-05-09T10:46:37.524Z,1002.01
2018-05-09T10:47:37.553Z,1002.01
2018-05-09T10:48:37.507Z,1001.96
2018-05-09T10:49:37.502Z,1001.93
2018-05-09T10:50:37.501Z,1002.00
2018-05-09T10:51:37.504Z,1001.99
2018-05-09T10:52:37.495Z,1001.95
2018-05-09T10:53:37.504Z,1001.96
2018-05-09T10:54:37.494Z,1001.96
2018-05-09T10:55:37.488Z,1001.95
2018-05-09T10:56:37.493Z,1001.91
2018-05-09T10:57:37.489Z,1001.90
2018-05-09T10:58:37.481Z,1001.89
2018-05-09T10:59:37.481Z,1001.89
2018-05-09T11:00:37.474Z,1001.93
2018-05-09T11:01:37.481Z,1001.92
2018-05-09T11:02:37.472Z,1001.88
2018-05-09T11:03:37.470Z,1002.04
2018-05-09T11:04:37.466Z,1001.96
2018-05-09T11:05:37.461Z,1001.93
2018-05-09T11:06:37.462Z,1001.91
2018-05-09T11:07:37.462Z,1001.91
2018-05-09T11:08:37.462Z,1001.87
2018-05-09T11:09:37.450Z,1001.86
2018-05-09T11:10:37.523Z,1001.85
2018-05-09T11:11:37.446Z,1001.84
2018-05-09T11:12:37.442Z,1001.87
2018-05-09T11:13:37.441Z,1001.83
2018-05-09T11:14:37.441Z,1001.82
2018-05-09T11:15:37.435Z,1001.81
2018-05-09T11:16:37.430Z,1001.78
2018-05-09T11:17:37.470Z,1001.74
2018-05-09T11:18:37.438Z,1001.77
2018-05-09T11:19:37.420Z,1001.77
2018-05-09T11:20:37.416Z,1001.77
2018-05-09T11:21:37.419Z,1001.74
2018-05-09T11:22:37.410Z,1001.76
2018-05-09T11:23:37.411Z,1001.67
2018-05-09T11:24:37.464Z,1001.69
2018-05-09T11:25:37.420Z,1001.68
2018-05-09T11:26:37.397Z,1001.63
2018-05-09T11:27:37.413Z,1001.72
2018-05-09T11:28:37.391Z,1001.67
2018-05-09T11:29:37.397Z,1001.69
2018-05-09T11:30:37.385Z,1001.65
2018-05-09T11:31:37.384Z,1001.64
2018-05-09T11:32:37.381Z,1001.68
2018-05-09T11:33:37.378Z,1001.66
2018-05-09T11:34:37.375Z,1001.62
2018-05-09T11:35:37.368Z,1001.62
2018-05-09T11:36:37.372Z,1001.58
2018-05-09T11:37:37.369Z,1001.60
2018-05-09T11:38:37.372Z,1001.59
2018-05-09T11:39:37.359Z,1001.56
2018-05-09T11:40:37.356Z,1001.56
2018-05-09T11:41:37.355Z,1001.57
2018-05-09T11:42:37.351Z,1001.56
2018-05-09T11:43:37.349Z,1001.59
2018-05-09T11:44:37.343Z,1001.52
2018-05-09T11:45:37.340Z,1001.48
2018-05-09T11:46:37.340Z,1001.52
2018-05-09T11:47:37.345Z,1001.46
2018-05-09T11:48:37.340Z,1001.46
2018-05-09T11:49:37.326Z,1001.59
2018-05-09T11:50:37.326Z,1001.49
2018-05-09T11:51:37.319Z,1001.48
2018-05-09T11:52:37.314Z,1001.34
2018-05-09T11:53:37.310Z,1001.35
2018-05-09T11:54:37.309Z,1001.48
2018-05-09T11:55:37.313Z,1001.43
2018-05-09T11:56:37.299Z,1001.45
2018-05-09T11:57:37.300Z,1001.49
2018-05-09T11:58:37.292Z,1001.38
2018-05-09T11:59:37.290Z,1001.38
2018-05-09T12:00:37.296Z,1001.38
2018-05-09T12:01:37.289Z,1001.40
2018-05-09T12:02:37.368Z,1001.36
2018-05-09T12:03:37.279Z,1001.35
2018-05-09T12:04:37.270Z,1001.36
2018-05-09T12:05:37.270Z,1001.30